Hik — 9HQT7 — position and weather

sailwx.info

Track history (hours):
 
Tides and Currents Weather Stations Pressure Air Temp Water Temp Dewpoint Dewpoint Depression Visibility Wind Speed Wind Dir Waves Ship Positions

Hik

Last reported at 2018-Feb-16 23:16 UTC. Time now 2018-Feb-25 00:13 UTC.
Position N 35°48' E 014°48'.
Warning: this ship's position is 8 days out of date.

Length 176 m; draft 7 m.

Type: Tanker. MMSI: 229499000.

Date/timePositionNaut miles runAvg speedWind from/ knotsBaromVisibWave heightAir tempDewpointWater temp
2018-Feb-16 23:16N 35°48' E 014°48'4 9.4
2018-Feb-16 22:49N 35°52' E 014°47'0 0.7
2018-Feb-16 22:30N 35°52' E 014°47'0 0.0
2018-Feb-16 21:57N 35°52' E 014°46'0 0.0
2018-Feb-16 21:30N 35°52' E 014°46'0 0.0
2018-Feb-16 20:53N 35°52' E 014°46'0 0.0
2018-Feb-16 20:29N 35°52' E 014°46'0 0.0
2018-Feb-16 19:53N 35°52' E 014°47'0 0.0
2018-Feb-16 19:29N 35°52' E 014°47'0 0.0
2018-Feb-16 18:56N 35°52' E 014°46'0 0.0
2018-Feb-16 18:25N 35°52' E 014°46'0 0.0
2018-Feb-16 17:58N 35°52' E 014°47'0 0.0
2018-Feb-16 17:22N 35°52' E 014°46'0 0.0
2018-Feb-16 16:55N 35°52' E 014°47'0 0.0
2018-Feb-16 16:25N 35°52' E 014°46'0 0.0
2018-Feb-16 15:48N 35°52' E 014°47'0 0.0
2018-Feb-16 15:30N 35°52' E 014°47'0 0.0
2018-Feb-16 14:54N 35°52' E 014°47'0 0.0
2018-Feb-16 14:27N 35°52' E 014°46'0 0.0
2018-Feb-16 13:57N 35°52' E 014°46'0 0.0
2018-Feb-16 13:23N 35°52' E 014°46'0 0.0
2018-Feb-16 12:56N 35°52' E 014°47'0 0.0
2018-Feb-16 12:29N 35°52' E 014°46'0 0.0
2018-Feb-16 11:56N 35°52' E 014°46'0 0.0
2018-Feb-16 11:25N 35°52' E 014°46'0 0.0
2018-Feb-16 10:58N 35°52' E 014°46'0 0.0
2018-Feb-16 10:22N 35°52' E 014°47'0 0.0
2018-Feb-16 09:55N 35°52' E 014°46'0 0.0
2018-Feb-16 09:18N 35°52' E 014°47'0 0.0
2018-Feb-16 09:00N 35°52' E 014°47'0 0.0
2018-Feb-16 08:27N 35°52' E 014°47'0 0.1
2018-Feb-16 08:00N 35°52' E 014°47'0 0.0
2018-Feb-16 07:24N 35°52' E 014°47'0 0.0
2018-Feb-16 07:00N 35°52' E 014°47'0 0.0
2018-Feb-16 06:29N 35°52' E 014°47'0 0.0
2018-Feb-16 05:59N 35°52' E 014°47'0 0.0
2018-Feb-16 05:29N 35°52' E 014°47'0 0.0
2018-Feb-16 04:44N 35°52' E 014°47'0 0.0
2018-Feb-16 04:16N 35°52' E 014°47'0 0.0
2018-Feb-16 03:46N 35°52' E 014°47'0 0.1
2018-Feb-16 03:28N 35°52' E 014°47'0 0.0
2018-Feb-16 02:49N 35°52' E 014°47'0 0.0
2018-Feb-16 02:09N 35°52' E 014°47'0 0.0
2018-Feb-16 01:57N 35°52' E 014°47'0 0.1
2018-Feb-16 01:27N 35°52' E 014°47'0 0.0
2018-Feb-16 00:33N 35°52' E 014°47'0 0.0
2018-Feb-16 00:15N 35°52' E 014°47'0 1.3
2018-Feb-16 00:00N 35°52' E 014°47'4 8.3
2018-Feb-15 23:29N 35°48' E 014°44'  
2018-Feb-13 07:59N 35°48' E 014°36'1 1.4
2018-Feb-13 07:22N 35°48' E 014°37'2 4.3
2018-Feb-13 06:58N 35°47' E 014°39'1 2.6
2018-Feb-13 06:29N 35°46' E 014°40'1 1.8
2018-Feb-13 05:59N 35°46' E 014°39'0 0.3
2018-Feb-13 05:28N 35°46' E 014°39'3 2.4
2018-Feb-13 04:21N 35°49' E 014°39'3 8.5
2018-Feb-13 04:00N 35°49' E 014°42'  
2018-Feb-10 06:59N 39°44' E 018°35'611.4
2018-Feb-10 06:29N 39°48' E 018°40'611.6
2018-Feb-10 06:00N 39°53' E 018°44'35310.7
2018-Feb-08 21:00N 44°40' E 014°07'  
Track history (hours):
 
Tides and Currents Weather Stations Pressure Air Temp Water Temp Dewpoint Dewpoint Depression Visibility Wind Speed Wind Dir Waves Ship Positions

Hik

Last reported at 2018-Feb-16 23:16 UTC. Time now 2018-Feb-25 00:13 UTC.
Position N 35°48' E 014°48'.
Warning: this ship's position is 8 days out of date.

Length 176 m; draft 7 m.

Type: Tanker. MMSI: 229499000.

Date/timePositionNaut miles runAvg speedWind from/ knotsBaromVisibWave heightAir tempDewpointWater temp
2018-Feb-16 23:16N 35°48' E 014°48'4 9.4
2018-Feb-16 22:49N 35°52' E 014°47'0 0.7
2018-Feb-16 22:30N 35°52' E 014°47'0 0.0
2018-Feb-16 21:57N 35°52' E 014°46'0 0.0
2018-Feb-16 21:30N 35°52' E 014°46'0 0.0
2018-Feb-16 20:53N 35°52' E 014°46'0 0.0
2018-Feb-16 20:29N 35°52' E 014°46'0 0.0
2018-Feb-16 19:53N 35°52' E 014°47'0 0.0
2018-Feb-16 19:29N 35°52' E 014°47'0 0.0
2018-Feb-16 18:56N 35°52' E 014°46'0 0.0
2018-Feb-16 18:25N 35°52' E 014°46'0 0.0
2018-Feb-16 17:58N 35°52' E 014°47'0 0.0
2018-Feb-16 17:22N 35°52' E 014°46'0 0.0
2018-Feb-16 16:55N 35°52' E 014°47'0 0.0
2018-Feb-16 16:25N 35°52' E 014°46'0 0.0
2018-Feb-16 15:48N 35°52' E 014°47'0 0.0
2018-Feb-16 15:30N 35°52' E 014°47'0 0.0
2018-Feb-16 14:54N 35°52' E 014°47'0 0.0
2018-Feb-16 14:27N 35°52' E 014°46'0 0.0
2018-Feb-16 13:57N 35°52' E 014°46'0 0.0
2018-Feb-16 13:23N 35°52' E 014°46'0 0.0
2018-Feb-16 12:56N 35°52' E 014°47'0 0.0
2018-Feb-16 12:29N 35°52' E 014°46'0 0.0
2018-Feb-16 11:56N 35°52' E 014°46'0 0.0
2018-Feb-16 11:25N 35°52' E 014°46'0 0.0
2018-Feb-16 10:58N 35°52' E 014°46'0 0.0
2018-Feb-16 10:22N 35°52' E 014°47'0 0.0
2018-Feb-16 09:55N 35°52' E 014°46'0 0.0
2018-Feb-16 09:18N 35°52' E 014°47'0 0.0
2018-Feb-16 09:00N 35°52' E 014°47'0 0.0
2018-Feb-16 08:27N 35°52' E 014°47'0 0.1
2018-Feb-16 08:00N 35°52' E 014°47'0 0.0
2018-Feb-16 07:24N 35°52' E 014°47'0 0.0
2018-Feb-16 07:00N 35°52' E 014°47'0 0.0
2018-Feb-16 06:29N 35°52' E 014°47'0 0.0
2018-Feb-16 05:59N 35°52' E 014°47'0 0.0
2018-Feb-16 05:29N 35°52' E 014°47'0 0.0
2018-Feb-16 04:44N 35°52' E 014°47'0 0.0
2018-Feb-16 04:16N 35°52' E 014°47'0 0.0
2018-Feb-16 03:46N 35°52' E 014°47'0 0.1
2018-Feb-16 03:28N 35°52' E 014°47'0 0.0
2018-Feb-16 02:49N 35°52' E 014°47'0 0.0
2018-Feb-16 02:09N 35°52' E 014°47'0 0.0
2018-Feb-16 01:57N 35°52' E 014°47'0 0.1
2018-Feb-16 01:27N 35°52' E 014°47'0 0.0
2018-Feb-16 00:33N 35°52' E 014°47'0 0.0
2018-Feb-16 00:15N 35°52' E 014°47'0 1.3
2018-Feb-16 00:00N 35°52' E 014°47'4 8.3
2018-Feb-15 23:29N 35°48' E 014°44'  
2018-Feb-13 07:59N 35°48' E 014°36'1 1.4
2018-Feb-13 07:22N 35°48' E 014°37'2 4.3
2018-Feb-13 06:58N 35°47' E 014°39'1 2.6
2018-Feb-13 06:29N 35°46' E 014°40'1 1.8
2018-Feb-13 05:59N 35°46' E 014°39'0 0.3
2018-Feb-13 05:28N 35°46' E 014°39'3 2.4
2018-Feb-13 04:21N 35°49' E 014°39'3 8.5
2018-Feb-13 04:00N 35°49' E 014°42'  
2018-Feb-10 06:59N 39°44' E 018°35'611.4
2018-Feb-10 06:29N 39°48' E 018°40'611.6
2018-Feb-10 06:00N 39°53' E 018°44'35310.7
2018-Feb-08 21:00N 44°40' E 014°07'  

Dump ship's entire track history